Time;durP1;ratioP1;P1;durP2;ratioP2;P2;SDS_P1;SDS_P2;PMS_P1;PMS_P2;Temp;Humidity;BMP_temperature;BMP_pressure;BME280_temperature;BME280_humidity;BME280_pressure;Samples;Min_cycle;Max_cycle;Signal;HPM_P1;HPM_P2
2024/02/23 00:00:05;;;;;;;;;;;;;;;21.28;26.99;97845.56;5043653;28;852;-77
2024/02/23 00:02:31;;;;;;;;;;;;;;;21.41;26.49;97836.38;5043820;28;1011;-77
2024/02/23 00:04:56;;;;;;;;;;;;;;;21.35;26.59;97838.13;5041892;28;1010;-78
2024/02/23 00:07:22;;;;;;;;;;;;;;;21.58;26.33;97832.22;5044137;28;1910;-77
2024/02/23 00:09:48;;;;;;;;;;;;;;;21.00;27.33;97835.03;5042265;28;930;-77
2024/02/23 00:12:14;;;;;;;;;;;;;;;20.99;26.71;97819.31;5044977;28;980;-77
2024/02/23 00:14:39;;;;;;;;;;;;;;;20.81;27.27;97819.75;5043141;28;981;-77
2024/02/23 00:17:05;;;;;;;;;;;;;;;21.30;27.03;97826.16;5044035;28;913;-77
2024/02/23 00:19:31;;;;;;;;;;;;;;;21.32;26.77;97818.00;5024721;28;938;-77
2024/02/23 00:21:57;;;;;;;;;;;;;;;21.45;26.61;97820.06;5043306;28;878;-77
2024/02/23 00:24:23;;;;;;;;;;;;;;;21.38;26.92;97814.59;5025634;28;1236;-77
2024/02/23 00:26:49;;;;;;;;;;;;;;;21.44;26.85;97815.63;5042890;28;1906;-78
2024/02/23 00:29:14;;;;;;;;;;;;;;;21.29;26.81;97807.53;5041490;28;1045;-77
2024/02/23 00:31:40;;;;;;;;;;;;;;;21.38;26.91;97801.25;5043463;28;988;-77
2024/02/23 00:34:10;;;;;;;;;;;;;;;20.70;27.58;97794.59;5042886;28;1144;-77
2024/02/23 00:36:39;;;;;;;;;;;;;;;21.01;26.95;97808.34;5027040;28;1230;-77
2024/02/23 00:39:04;;;;;;;;;;;;;;;21.27;26.75;97798.69;5041685;28;927;-77
2024/02/23 00:41:30;;;;;;;;;;;;;;;21.24;27.10;97804.44;5026569;28;1123;-78
2024/02/23 00:43:55;;;;;;;;;;;;;;;21.26;26.80;97801.97;5043046;28;980;-77
2024/02/23 00:46:21;;;;;;;;;;;;;;;21.43;26.84;97794.25;5046790;28;1902;-77
2024/02/23 00:48:47;;;;;;;;;;;;;;;21.22;27.03;97796.41;5046525;28;958;-77
2024/02/23 00:51:12;;;;;;;;;;;;;;;21.35;27.00;97790.03;5048992;28;922;-77
2024/02/23 00:53:38;;;;;;;;;;;;;;;20.69;27.41;97781.72;5046537;28;1022;-78
2024/02/23 00:56:04;;;;;;;;;;;;;;;20.27;28.21;97787.19;5049129;28;1008;-77
2024/02/23 00:58:29;;;;;;;;;;;;;;;20.66;27.49;97771.28;5004332;28;969;-77
2024/02/23 01:00:55;;;;;;;;;;;;;;;20.97;27.33;97782.16;5006940;28;987;-78
2024/02/23 01:03:20;;;;;;;;;;;;;;;21.20;27.16;97781.94;4988332;28;1272;-77
2024/02/23 01:05:46;;;;;;;;;;;;;;;21.24;26.98;97776.97;5007139;28;1233;-77
2024/02/23 01:08:11;;;;;;;;;;;;;;;21.41;26.85;97774.09;5004212;28;1994;-77
2024/02/23 01:10:37;;;;;;;;;;;;;;;21.33;26.94;97771.47;5006789;28;979;-77
2024/02/23 01:13:03;;;;;;;;;;;;;;;21.60;26.56;97775.94;4989090;28;986;-78
2024/02/23 01:15:28;;;;;;;;;;;;;;;21.49;26.46;97776.25;5005526;28;1104;-77
2024/02/23 01:17:56;;;;;;;;;;;;;;;20.98;26.99;97772.44;5005464;28;1028;-77
2024/02/23 01:20:21;;;;;;;;;;;;;;;21.01;26.97;97775.19;4989208;28;958;-77
2024/02/23 01:22:47;;;;;;;;;;;;;;;20.75;27.39;97759.34;4989469;28;1594;-77
2024/02/23 01:25:15;;;;;;;;;;;;;;;21.14;26.97;97754.63;5004579;28;1025;-77
2024/02/23 01:27:41;;;;;;;;;;;;;;;21.20;27.15;97753.63;5004929;28;1902;-78
2024/02/23 01:30:07;;;;;;;;;;;;;;;21.11;27.03;97750.66;5004746;28;1014;-77
2024/02/23 01:32:32;;;;;;;;;;;;;;;21.11;27.06;97741.38;4989086;28;961;-77
2024/02/23 01:34:58;;;;;;;;;;;;;;;21.38;26.72;97741.03;5010020;28;977;-77
2024/02/23 01:37:23;;;;;;;;;;;;;;;21.42;26.85;97733.22;5046492;28;1155;-77
2024/02/23 01:39:49;;;;;;;;;;;;;;;21.42;26.51;97733.22;5044925;28;1026;-77
2024/02/23 01:42:15;;;;;;;;;;;;;;;21.08;27.01;97731.75;5046212;28;959;-77
2024/02/23 01:44:40;;;;;;;;;;;;;;;20.87;27.43;97729.53;5007277;28;1110;-78
2024/02/23 01:47:06;;;;;;;;;;;;;;;21.01;27.39;97723.47;5009445;28;1895;-77
2024/02/23 01:49:33;;;;;;;;;;;;;;;21.16;27.23;97729.50;5007828;28;1057;-77
2024/02/23 01:51:59;;;;;;;;;;;;;;;21.26;27.00;97720.72;4993108;28;1022;-77
2024/02/23 01:54:25;;;;;;;;;;;;;;;21.20;27.22;97711.19;5007117;28;1104;-77
2024/02/23 01:56:50;;;;;;;;;;;;;;;21.44;26.95;97711.69;5024550;28;1057;-78
2024/02/23 01:59:17;;;;;;;;;;;;;;;21.46;27.06;97714.91;5007543;28;964;-77
2024/02/23 02:01:45;;;;;;;;;;;;;;;21.33;27.00;97717.69;4992802;28;1019;-77
2024/02/23 02:04:11;;;;;;;;;;;;;;;21.35;27.06;97719.28;4990558;28;1237;-77
2024/02/23 02:06:37;;;;;;;;;;;;;;;21.08;27.48;97717.59;5008648;28;1980;-77
2024/02/23 02:09:02;;;;;;;;;;;;;;;20.67;28.18;97716.31;4991482;28;1010;-77
2024/02/23 02:11:28;;;;;;;;;;;;;;;21.33;27.15;97717.69;5008015;28;881;-77
2024/02/23 02:13:53;;;;;;;;;;;;;;;21.29;27.05;97722.63;5007212;28;1008;-77
2024/02/23 02:16:19;;;;;;;;;;;;;;;21.42;27.05;97725.53;5042339;28;966;-77
2024/02/23 02:18:45;;;;;;;;;;;;;;;21.39;27.12;97731.28;5044303;28;900;-77
2024/02/23 02:21:11;;;;;;;;;;;;;;;21.49;26.94;97724.50;5024965;28;928;-77
2024/02/23 02:23:37;;;;;;;;;;;;;;;21.67;26.48;97736.09;5005855;28;1030;-77
2024/02/23 02:26:03;;;;;;;;;;;;;;;20.82;27.88;97730.84;4992767;28;1135;-77
2024/02/23 02:28:28;;;;;;;;;;;;;;;21.07;27.65;97728.13;4982557;28;2013;-77
2024/02/23 02:30:54;;;;;;;;;;;;;;;20.88;27.63;97722.63;4986354;28;983;-77
2024/02/23 02:33:20;;;;;;;;;;;;;;;21.35;27.27;97722.91;4967035;28;1467;-77
2024/02/23 02:35:45;;;;;;;;;;;;;;;21.41;26.92;97723.16;4985692;28;1064;-77
2024/02/23 02:38:11;;;;;;;;;;;;;;;21.29;27.22;97716.97;4967911;28;1133;-77
2024/02/23 02:40:37;;;;;;;;;;;;;;;21.56;26.83;97712.97;4984550;28;859;-77
2024/02/23 02:43:02;;;;;;;;;;;;;;;21.70;26.61;97718.19;4929171;29;907;-77
2024/02/23 02:45:28;;;;;;;;;;;;;;;21.25;27.36;97704.97;4946497;29;928;-77
2024/02/23 02:47:54;;;;;;;;;;;;;;;20.92;27.83;97712.00;4929111;29;1919;-77
2024/02/23 02:50:19;;;;;;;;;;;;;;;20.97;27.94;97705.81;4946028;29;992;-77
2024/02/23 02:52:45;;;;;;;;;;;;;;;21.15;27.37;97703.25;4912105;29;1167;-77
2024/02/23 02:55:10;;;;;;;;;;;;;;;21.31;27.30;97702.41;4906902;29;1006;-77
2024/02/23 02:57:36;;;;;;;;;;;;;;;21.32;27.15;97710.44;4908189;29;977;-77
2024/02/23 03:00:05;;;;;;;;;;;;;;;21.27;27.47;97708.16;4906621;29;970;-77
2024/02/23 03:02:31;;;;;;;;;;;;;;;21.45;27.14;97712.50;4908417;29;1094;-77
2024/02/23 03:04:56;;;;;;;;;;;;;;;21.43;26.90;97715.00;4912911;29;1113;-77
2024/02/23 03:07:22;;;;;;;;;;;;;;;21.14;27.31;97707.34;4964225;28;1891;-77
2024/02/23 03:09:49;;;;;;;;;;;;;;;20.54;28.16;97721.94;4963267;29;960;-77
2024/02/23 03:12:14;;;;;;;;;;;;;;;20.69;28.00;97713.84;4965247;29;953;-77
2024/02/23 03:14:40;;;;;;;;;;;;;;;21.34;27.33;97724.13;4944413;29;956;-77
2024/02/23 03:17:11;;;;;;;;;;;;;;;21.30;27.41;97724.25;4929785;29;1019;-77
2024/02/23 03:19:37;;;;;;;;;;;;;;;21.24;27.50;97716.72;4928548;29;1061;-77
2024/02/23 03:22:03;;;;;;;;;;;;;;;21.12;27.53;97712.63;4945996;29;1042;-77
2024/02/23 03:24:28;;;;;;;;;;;;;;;21.28;27.20;97715.38;4944644;29;949;-77
2024/02/23 03:26:55;;;;;;;;;;;;;;;21.19;27.44;97720.94;4961812;29;1977;-77
2024/02/23 03:29:21;;;;;;;;;;;;;;;20.66;27.96;97720.38;4947174;29;1550;-77
2024/02/23 03:31:47;;;;;;;;;;;;;;;20.92;27.98;97726.16;4949463;29;1065;-77
2024/02/23 03:34:13;;;;;;;;;;;;;;;21.32;27.47;97718.94;4947493;29;972;-77
2024/02/23 03:36:38;;;;;;;;;;;;;;;21.30;27.23;97721.44;4949302;29;963;-77
2024/02/23 03:39:04;;;;;;;;;;;;;;;21.47;27.30;97715.69;4963262;29;981;-77
2024/02/23 03:41:29;;;;;;;;;;;;;;;21.43;27.23;97703.66;4964435;29;1108;-77
2024/02/23 03:43:55;;;;;;;;;;;;;;;21.29;27.60;97699.97;4947122;29;1323;-77
2024/02/23 03:46:21;;;;;;;;;;;;;;;21.37;27.36;97694.16;4995336;28;1975;-77
2024/02/23 03:48:47;;;;;;;;;;;;;;;21.03;27.59;97699.13;4969028;28;967;-77
2024/02/23 03:51:12;;;;;;;;;;;;;;;21.00;27.53;97694.41;5018407;28;1182;-77
2024/02/23 03:53:38;;;;;;;;;;;;;;;20.93;27.94;97705.09;5042189;28;882;-77
2024/02/23 03:56:04;;;;;;;;;;;;;;;20.25;28.81;97696.41;5045754;28;839;-77
2024/02/23 03:58:29;;;;;;;;;;;;;;;21.11;27.75;97705.41;5042128;28;995;-77
2024/02/23 04:00:55;;;;;;;;;;;;;;;21.20;27.63;97708.38;5044282;28;1166;-77
2024/02/23 04:03:21;;;;;;;;;;;;;;;21.21;27.37;97709.94;5008614;28;1612;-77
2024/02/23 04:05:46;;;;;;;;;;;;;;;21.33;27.15;97712.03;5044838;28;887;-77
2024/02/23 04:08:12;;;;;;;;;;;;;;;21.44;27.10;97699.59;5041369;28;1981;-78
2024/02/23 04:10:37;;;;;;;;;;;;;;;21.26;27.31;97694.44;5026473;28;818;-77
2024/02/23 04:13:03;;;;;;;;;;;;;;;20.52;28.46;97698.16;5008758;28;963;-77
2024/02/23 04:15:29;;;;;;;;;;;;;;;20.86;27.72;97696.84;5043166;28;684;-77
2024/02/23 04:17:54;;;;;;;;;;;;;;;21.35;27.10;97696.63;5043472;28;938;-77
2024/02/23 04:20:20;;;;;;;;;;;;;;;21.13;27.54;97685.94;5043865;28;849;-77
2024/02/23 04:22:46;;;;;;;;;;;;;;;21.23;27.33;97684.81;5043744;28;1119;-79
2024/02/23 04:25:12;;;;;;;;;;;;;;;21.31;27.36;97683.41;5041483;28;1280;-78
2024/02/23 04:27:37;;;;;;;;;;;;;;;21.39;27.26;97686.00;5022040;28;1906;-78
2024/02/23 04:30:03;;;;;;;;;;;;;;;21.63;26.84;97678.78;5004441;28;927;-78
2024/02/23 04:32:30;;;;;;;;;;;;;;;21.27;26.89;97677.00;4989589;28;1233;-77
2024/02/23 04:34:55;;;;;;;;;;;;;;;20.89;27.78;97687.47;5004555;28;912;-78
2024/02/23 04:37:21;;;;;;;;;;;;;;;21.01;27.63;97689.53;5005705;28;958;-78
2024/02/23 04:39:47;;;;;;;;;;;;;;;21.31;27.20;97691.88;5004191;28;1229;-78
2024/02/23 04:42:12;;;;;;;;;;;;;;;21.42;27.02;97696.44;4990201;28;1130;-78
2024/02/23 04:44:38;;;;;;;;;;;;;;;21.45;26.76;97685.00;4988268;28;1498;-78
2024/02/23 04:47:03;;;;;;;;;;;;;;;21.49;26.75;97690.53;5022580;28;1988;-78
2024/02/23 04:49:29;;;;;;;;;;;;;;;20.91;27.58;97691.41;5004295;28;1115;-78
2024/02/23 04:51:54;;;;;;;;;;;;;;;20.60;27.93;97693.13;5022497;28;1076;-78
2024/02/23 04:54:20;;;;;;;;;;;;;;;21.00;27.61;97690.78;5020529;28;1153;-78
2024/02/23 04:56:47;;;;;;;;;;;;;;;21.18;27.16;97691.03;4989912;28;1064;-77
2024/02/23 04:59:13;;;;;;;;;;;;;;;21.47;26.83;97687.38;5015382;28;1180;-77
2024/02/23 05:01:38;;;;;;;;;;;;;;;21.35;26.98;97696.63;4986109;28;1079;-77
2024/02/23 05:04:04;;;;;;;;;;;;;;;21.31;27.04;97697.53;4984969;28;993;-77
2024/02/23 05:06:30;;;;;;;;;;;;;;;21.40;27.25;97698.91;4985972;28;1915;-78
2024/02/23 05:08:55;;;;;;;;;;;;;;;21.46;26.91;97702.78;4984214;28;1222;-77
2024/02/23 05:11:21;;;;;;;;;;;;;;;21.37;26.90;97703.44;5001901;28;878;-78
2024/02/23 05:13:47;;;;;;;;;;;;;;;20.68;27.69;97706.63;5000751;28;764;-77
2024/02/23 05:16:13;;;;;;;;;;;;;;;20.89;27.43;97710.09;5002256;28;907;-77
2024/02/23 05:18:40;;;;;;;;;;;;;;;20.61;28.09;97712.44;4999825;28;918;-78
2024/02/23 05:21:06;;;;;;;;;;;;;;;21.24;27.32;97720.38;4986046;28;1151;-77
2024/02/23 05:23:31;;;;;;;;;;;;;;;21.42;26.90;97713.41;4983280;28;1177;-78
2024/02/23 05:25:57;;;;;;;;;;;;;;;21.39;27.02;97719.97;5002489;28;926;-77
2024/02/23 05:28:23;;;;;;;;;;;;;;;21.16;27.50;97721.03;4983332;28;1981;-77
2024/02/23 05:30:48;;;;;;;;;;;;;;;21.40;27.11;97727.19;5003448;28;707;-78
2024/02/23 05:33:14;;;;;;;;;;;;;;;21.30;27.12;97724.25;5029923;28;849;-78
2024/02/23 05:35:39;;;;;;;;;;;;;;;20.88;27.59;97725.44;5046529;28;858;-78
2024/02/23 05:38:06;;;;;;;;;;;;;;;20.96;27.74;97724.03;5045537;28;801;-78
2024/02/23 05:40:32;;;;;;;;;;;;;;;21.36;26.98;97721.66;5029386;28;749;-77
2024/02/23 05:42:58;;;;;;;;;;;;;;;21.31;27.11;97720.19;5045390;28;882;-77
2024/02/23 05:45:23;;;;;;;;;;;;;;;21.20;27.43;97724.56;5028462;28;1618;-78
2024/02/23 05:47:49;;;;;;;;;;;;;;;21.13;27.55;97719.88;5012216;28;1883;-78
2024/02/23 05:50:14;;;;;;;;;;;;;;;21.35;27.14;97724.94;5046051;28;845;-77
2024/02/23 05:52:40;;;;;;;;;;;;;;;21.35;27.29;97724.94;5046105;28;716;-78
2024/02/23 05:55:05;;;;;;;;;;;;;;;21.39;27.03;97725.63;5044196;28;1214;-77
2024/02/23 05:57:31;;;;;;;;;;;;;;;21.27;27.29;97724.34;5029900;28;1236;-78
2024/02/23 05:59:57;;;;;;;;;;;;;;;20.96;27.73;97729.69;5044115;28;751;-78
2024/02/23 06:02:22;;;;;;;;;;;;;;;20.81;28.29;97724.41;5029355;28;763;-77
2024/02/23 06:04:48;;;;;;;;;;;;;;;21.13;27.50;97725.53;5045129;28;837;-78
2024/02/23 06:07:15;;;;;;;;;;;;;;;21.11;27.61;97728.03;5045497;28;1906;-78
2024/02/23 06:09:41;;;;;;;;;;;;;;;21.27;27.50;97732.81;5044168;28;708;-78
2024/02/23 06:12:07;;;;;;;;;;;;;;;21.59;27.06;97731.88;5045958;28;786;-77
2024/02/23 06:14:32;;;;;;;;;;;;;;;20.73;27.94;97725.06;5044906;28;862;-79
2024/02/23 06:16:58;;;;;;;;;;;;;;;20.67;28.28;97727.63;5028527;28;841;-78
2024/02/23 06:19:23;;;;;;;;;;;;;;;20.78;28.25;97739.47;5027466;28;1341;-78
2024/02/23 06:21:49;;;;;;;;;;;;;;;21.20;27.85;97730.22;5045566;28;858;-78
2024/02/23 06:24:15;;;;;;;;;;;;;;;21.25;27.52;97738.94;5045223;28;931;-77
2024/02/23 06:26:41;;;;;;;;;;;;;;;21.38;27.57;97736.16;5044987;28;1980;-78
2024/02/23 06:29:08;;;;;;;;;;;;;;;21.18;27.61;97739.13;5043365;28;1240;-77
2024/02/23 06:31:34;;;;;;;;;;;;;;;21.62;26.91;97742.31;5028338;28;1065;-78
2024/02/23 06:34:00;;;;;;;;;;;;;;;21.52;27.19;97735.72;4993748;28;1108;-78
2024/02/23 06:36:25;;;;;;;;;;;;;;;21.06;27.77;97737.06;5027789;28;965;-78
2024/02/23 06:38:51;;;;;;;;;;;;;;;20.71;28.49;97733.97;5027443;28;890;-78
2024/02/23 06:41:16;;;;;;;;;;;;;;;20.54;28.51;97746.56;5028716;28;1159;-78
2024/02/23 06:43:42;;;;;;;;;;;;;;;21.07;27.88;97749.97;5044420;28;896;-78
2024/02/23 06:46:08;;;;;;;;;;;;;;;21.15;27.88;97745.69;5046744;28;719;-78
2024/02/23 06:48:34;;;;;;;;;;;;;;;21.34;27.46;97743.94;5025865;28;1914;-78
2024/02/23 06:50:59;;;;;;;;;;;;;;;21.33;27.62;97751.66;5045308;28;814;-77
2024/02/23 06:53:25;;;;;;;;;;;;;;;21.45;27.15;97740.78;5042348;28;1523;-78
2024/02/23 06:55:50;;;;;;;;;;;;;;;21.39;27.36;97739.78;5046483;28;889;-77
2024/02/23 06:58:16;;;;;;;;;;;;;;;20.96;27.75;97738.16;5044343;28;787;-77
2024/02/23 07:00:42;;;;;;;;;;;;;;;20.57;28.24;97734.34;5045020;28;846;-77
2024/02/23 07:03:07;;;;;;;;;;;;;;;21.12;27.72;97738.09;5042886;28;747;-77
2024/02/23 07:05:35;;;;;;;;;;;;;;;21.02;27.74;97747.69;5045365;28;812;-77
2024/02/23 07:08:01;;;;;;;;;;;;;;;21.17;27.62;97743.19;5044182;28;1906;-77
2024/02/23 07:10:26;;;;;;;;;;;;;;;21.57;26.98;97742.88;5307219;23;3672;-75
2024/02/23 07:12:56;;;;;;;;;;;;;;;22.29;26.67;97742.22;5037164;28;773;-75
2024/02/23 07:15:21;;;;;;;;;;;;;;;21.97;26.77;97736.78;5021100;28;1341;-75
2024/02/23 07:17:47;;;;;;;;;;;;;;;21.21;27.54;97752.38;5020451;28;1297;-75
2024/02/23 07:20:13;;;;;;;;;;;;;;;21.17;27.65;97743.19;5020415;28;1324;-75
2024/02/23 07:22:38;;;;;;;;;;;;;;;21.49;26.82;97741.50;5036476;28;872;-75
2024/02/23 07:25:05;;;;;;;;;;;;;;;21.55;26.69;97739.69;5020054;28;817;-75
2024/02/23 07:27:31;;;;;;;;;;;;;;;21.63;25.99;97732.56;5036288;28;1914;-75
2024/02/23 07:29:57;;;;;;;;;;;;;;;21.81;25.80;97734.81;5036606;28;726;-75
2024/02/23 07:32:22;;;;;;;;;;;;;;;21.59;25.64;97731.88;5020419;28;1749;-75
2024/02/23 07:34:48;;;;;;;;;;;;;;;21.17;26.29;97736.75;4999167;28;1337;-75
2024/02/23 07:37:13;;;;;;;;;;;;;;;21.59;25.78;97734.72;4999500;28;929;-74
2024/02/23 07:39:39;;;;;;;;;;;;;;;21.59;25.62;97740.38;4983290;28;1682;-75
2024/02/23 07:42:06;;;;;;;;;;;;;;;21.72;25.18;97731.91;4999418;28;905;-75
2024/02/23 07:44:31;;;;;;;;;;;;;;;21.88;25.09;97736.66;4983341;28;1107;-75
2024/02/23 07:46:59;;;;;;;;;;;;;;;21.63;25.28;97741.06;4966614;28;1977;-75
2024/02/23 07:49:24;;;;;;;;;;;;;;;21.82;24.88;97747.78;5015248;28;925;-75
2024/02/23 07:51:50;;;;;;;;;;;;;;;21.38;25.34;97746.69;4999149;28;1064;-75
2024/02/23 07:54:16;;;;;;;;;;;;;;;21.65;24.81;97749.88;4998161;28;1496;-75
2024/02/23 07:56:41;;;;;;;;;;;;;;;21.71;24.90;97742.44;4999277;28;725;-75
2024/02/23 07:59:07;;;;;;;;;;;;;;;21.78;24.68;97747.88;4998821;28;795;-75
2024/02/23 08:01:33;;;;;;;;;;;;;;;21.78;24.71;97741.41;4976316;28;1154;-75
2024/02/23 08:03:58;;;;;;;;;;;;;;;21.78;24.51;97736.53;4959743;28;913;-75
2024/02/23 08:06:24;;;;;;;;;;;;;;;21.77;24.54;97740.63;4990719;28;1902;-75
2024/02/23 08:08:49;;;;;;;;;;;;;;;21.58;24.62;97738.78;4995748;28;872;-74
2024/02/23 08:11:15;;;;;;;;;;;;;;;21.43;25.08;97737.63;4979419;28;1134;-75
2024/02/23 08:13:40;;;;;;;;;;;;;;;21.61;24.75;97735.06;4995574;28;822;-75
2024/02/23 08:16:06;;;;;;;;;;;;;;;21.67;24.72;97741.75;4979569;28;931;-75
2024/02/23 08:18:31;;;;;;;;;;;;;;;21.85;24.37;97733.47;4979527;28;778;-75
2024/02/23 08:20:58;;;;;;;;;;;;;;;21.71;24.72;97738.78;4979357;28;762;-76
2024/02/23 08:23:24;;;;;;;;;;;;;;;21.94;24.24;97732.00;4979360;28;779;-75
2024/02/23 08:25:50;;;;;;;;;;;;;;;21.55;24.72;97745.34;4995354;28;779;-75
2024/02/23 08:28:16;;;;;;;;;;;;;;;21.56;24.54;97735.63;4963139;28;1910;-75
2024/02/23 08:30:41;;;;;;;;;;;;;;;21.25;24.98;97744.59;4979053;28;867;-75
2024/02/23 08:33:09;;;;;;;;;;;;;;;21.63;24.53;97741.06;5009692;28;927;-75
2024/02/23 08:35:35;;;;;;;;;;;;;;;21.70;24.70;97740.03;5014720;28;754;-75
2024/02/23 08:38:01;;;;;;;;;;;;;;;21.91;24.12;97727.25;4998026;28;804;-75
2024/02/23 08:40:26;;;;;;;;;;;;;;;21.73;24.51;97739.94;4998508;28;778;-75
2024/02/23 08:42:52;;;;;;;;;;;;;;;21.70;24.59;97746.50;4998396;28;884;-75
2024/02/23 08:45:17;;;;;;;;;;;;;;;21.56;24.81;97752.63;4998574;28;824;-75
2024/02/23 08:47:43;;;;;;;;;;;;;;;21.59;24.63;97754.53;5014835;28;1902;-75
2024/02/23 08:50:09;;;;;;;;;;;;;;;21.41;24.67;97752.25;4998157;28;858;-75
2024/02/23 08:52:34;;;;;;;;;;;;;;;21.66;24.73;97750.69;4998518;28;761;-75
2024/02/23 08:55:00;;;;;;;;;;;;;;;21.55;24.70;97759.50;5014599;28;899;-75
2024/02/23 08:57:27;;;;;;;;;;;;;;;21.78;24.21;97764.88;5014937;28;814;-75
2024/02/23 08:59:53;;;;;;;;;;;;;;;21.73;24.32;97765.44;4998567;28;838;-74
2024/02/23 09:02:19;;;;;;;;;;;;;;;21.91;24.30;97761.22;4998459;28;1012;-75
2024/02/23 09:04:45;;;;;;;;;;;;;;;21.78;24.06;97753.53;4999526;28;774;-75
2024/02/23 09:07:11;;;;;;;;;;;;;;;21.65;24.53;97747.06;5004562;28;1875;-75
2024/02/23 09:09:36;;;;;;;;;;;;;;;21.54;24.56;97750.22;5040038;28;1002;-75
2024/02/23 09:12:02;;;;;;;;;;;;;;;21.51;24.50;97762.47;5057155;28;1627;-75
2024/02/23 09:14:28;;;;;;;;;;;;;;;21.51;24.45;97764.50;5041960;28;869;-76
2024/02/23 09:16:53;;;;;;;;;;;;;;;21.66;24.46;97767.66;5042422;28;773;-75
2024/02/23 09:19:19;;;;;;;;;;;;;;;21.72;24.31;97768.72;5042414;28;811;-75
2024/02/23 09:21:45;;;;;;;;;;;;;;;21.82;24.35;97770.44;5042218;28;1324;-74
2024/02/23 09:24:10;;;;;;;;;;;;;;;22.01;23.81;97768.59;5041957;28;700;-76
2024/02/23 09:26:36;;;;;;;;;;;;;;;21.55;24.40;97753.84;5001555;28;1902;-75
2024/02/23 09:29:01;;;;;;;;;;;;;;;21.46;24.68;97765.06;5001691;28;774;-75
2024/02/23 09:31:28;;;;;;;;;;;;;;;21.51;24.75;97756.78;4985402;28;1140;-75
2024/02/23 09:33:55;;;;;;;;;;;;;;;21.45;24.77;97755.78;5001822;28;949;-75
2024/02/23 09:36:20;;;;;;;;;;;;;;;21.60;24.70;97747.63;4985395;28;891;-75
2024/02/23 09:38:48;;;;;;;;;;;;;;;21.94;24.44;97749.00;5180221;22;3751;-75
2024/02/23 09:41:20;;;;;;;;;;;;;;;22.07;25.41;97738.44;5038981;28;841;-75
2024/02/23 09:43:46;;;;;;;;;;;;;;;21.69;26.19;97744.13;5021890;28;809;-74
2024/02/23 09:46:12;;;;;;;;;;;;;;;21.48;26.27;97742.75;5039948;28;785;-75
2024/02/23 09:48:38;;;;;;;;;;;;;;;21.52;25.80;97746.25;5037900;28;1974;-75
2024/02/23 09:51:04;;;;;;;;;;;;;;;21.53;25.64;97737.31;5022099;28;1039;-76
2024/02/23 09:53:29;;;;;;;;;;;;;;;21.56;25.52;97741.28;5021903;28;1130;-76
2024/02/23 09:55:55;;;;;;;;;;;;;;;21.71;25.39;97731.13;5038740;28;817;-75
2024/02/23 09:58:21;;;;;;;;;;;;;;;21.85;24.91;97741.97;5038257;28;734;-75
2024/02/23 10:00:46;;;;;;;;;;;;;;;21.94;24.82;97732.00;5021954;28;1145;-74
2024/02/23 10:03:12;;;;;;;;;;;;;;;21.87;24.58;97733.03;5038275;28;734;-75
2024/02/23 10:05:38;;;;;;;;;;;;;;;21.50;25.29;97748.72;5038087;28;947;-75
2024/02/23 10:08:04;;;;;;;;;;;;;;;21.50;24.98;97743.88;5037950;28;1922;-75
2024/02/23 10:10:31;;;;;;;;;;;;;;;21.63;24.67;97740.28;5017627;28;961;-74
2024/02/23 10:12:57;;;;;;;;;;;;;;;21.66;24.58;97737.34;5000848;28;878;-75
2024/02/23 10:15:23;;;;;;;;;;;;;;;21.62;24.68;97731.00;5000658;28;852;-75
2024/02/23 10:17:48;;;;;;;;;;;;;;;21.63;24.65;97729.75;5016584;28;853;-76
2024/02/23 10:20:14;;;;;;;;;;;;;;;21.69;24.52;97733.59;5000802;28;946;-75
2024/02/23 10:22:39;;;;;;;;;;;;;;;21.80;24.33;97728.38;4961963;28;982;-75
2024/02/23 10:25:05;;;;;;;;;;;;;;;21.69;24.47;97727.94;4977937;28;753;-75
2024/02/23 10:27:30;;;;;;;;;;;;;;;21.59;24.29;97731.88;4977805;28;1906;-75
2024/02/23 10:29:56;;;;;;;;;;;;;;;21.52;24.53;97729.28;4977607;28;826;-75
2024/02/23 10:32:21;;;;;;;;;;;;;;;21.31;24.84;97731.50;4977640;28;787;-75
2024/02/23 10:34:47;;;;;;;;;;;;;;;21.57;24.28;97737.22;4961576;28;1223;-75
2024/02/23 10:37:13;;;;;;;;;;;;;;;21.55;24.22;97725.53;4945954;28;1260;-74
2024/02/23 10:39:38;;;;;;;;;;;;;;;21.81;23.87;97713.00;4919975;29;1217;-75
2024/02/23 10:42:05;;;;;;;;;;;;;;;21.87;23.82;97712.41;4918510;29;788;-75
2024/02/23 10:44:30;;;;;;;;;;;;;;;21.95;23.95;97706.06;4919568;29;960;-75
2024/02/23 10:46:56;;;;;;;;;;;;;;;21.89;23.65;97707.09;4920019;29;1906;-75
2024/02/23 10:49:25;;;;;;;;;;;;;;;21.64;23.92;97703.00;4904284;29;879;-75
2024/02/23 10:51:51;;;;;;;;;;;;;;;21.38;24.50;97709.88;4889223;29;1146;-75
2024/02/23 10:54:19;;;;;;;;;;;;;;;21.79;23.93;97706.97;4917220;29;970;-74
2024/02/23 10:56:46;;;;;;;;;;;;;;;21.53;23.99;97713.88;4926507;29;1125;-75
2024/02/23 10:59:12;;;;;;;;;;;;;;;21.71;24.02;97716.94;4941874;29;944;-74
2024/02/23 11:01:39;;;;;;;;;;;;;;;21.78;23.83;97702.56;4926298;29;1402;-75
2024/02/23 11:04:04;;;;;;;;;;;;;;;21.66;24.08;97708.22;4942156;29;829;-76
2024/02/23 11:06:30;;;;;;;;;;;;;;;21.82;23.83;97713.78;4942025;29;1973;-75
2024/02/23 11:09:04;;;;;;;;;;;;;;;21.87;23.64;97709.59;4938499;29;882;-75
2024/02/23 11:11:31;;;;;;;;;;;;;;;21.52;23.96;97706.63;4939171;29;902;-75
2024/02/23 11:13:57;;;;;;;;;;;;;;;21.52;24.16;97707.41;4941706;29;776;-76
2024/02/23 11:16:25;;;;;;;;;;;;;;;21.59;23.90;97692.25;4975319;28;1102;-74
2024/02/23 11:19:01;;;;;;;;;;;;;;;21.52;23.92;97700.97;4964295;28;1173;-75
2024/02/23 11:21:28;;;;;;;;;;;;;;;21.68;23.86;97698.03;4980116;28;719;-75
2024/02/23 11:23:54;;;;;;;;;;;;;;;21.88;23.54;97699.84;4977571;28;1228;-75
2024/02/23 11:26:19;;;;;;;;;;;;;;;21.65;23.78;97698.91;4980106;28;1057;-75
2024/02/23 11:28:48;;;;;;;;;;;;;;;21.68;23.83;97702.91;4992104;28;1985;-75
2024/02/23 11:31:14;;;;;;;;;;;;;;;21.58;24.01;97691.44;4980374;28;936;-75
2024/02/23 11:33:39;;;;;;;;;;;;;;;21.72;23.89;97681.72;4979863;28;784;-76
2024/02/23 11:36:06;;;;;;;;;;;;;;;21.75;23.51;97683.63;4996307;28;735;-75
2024/02/23 11:38:32;;;;;;;;;;;;;;;21.88;23.57;97680.00;4979530;28;1204;-75
2024/02/23 11:40:58;;;;;;;;;;;;;;;21.59;23.67;97676.03;5033173;28;821;-75
2024/02/23 11:43:23;;;;;;;;;;;;;;;21.37;24.22;97672.31;5036327;28;738;-75
2024/02/23 11:45:49;;;;;;;;;;;;;;;21.42;23.88;97679.44;5003904;28;1383;-76
2024/02/23 11:48:14;;;;;;;;;;;;;;;21.67;23.87;97670.97;5036013;28;1983;-76
2024/02/23 11:50:40;;;;;;;;;;;;;;;21.71;23.60;97671.66;5037742;28;770;-76
2024/02/23 11:53:05;;;;;;;;;;;;;;;21.87;23.46;97669.94;5037022;28;861;-75
2024/02/23 11:55:31;;;;;;;;;;;;;;;21.99;23.17;97677.63;5019619;28;1241;-75
2024/02/23 11:57:56;;;;;;;;;;;;;;;21.84;23.72;97672.41;5019492;28;802;-75
2024/02/23 12:00:23;;;;;;;;;;;;;;;21.92;23.34;97673.00;5037053;28;852;-76
2024/02/23 12:02:50;;;;;;;;;;;;;;;21.81;23.50;97667.69;4998755;28;1096;-75
2024/02/23 12:05:15;;;;;;;;;;;;;;;21.51;23.98;97671.09;4998855;28;1183;-75
2024/02/23 12:07:41;;;;;;;;;;;;;;;21.38;24.08;97664.59;5015398;28;1899;-75
2024/02/23 12:10:07;;;;;;;;;;;;;;;21.43;24.22;97664.03;5014987;28;1007;-75
2024/02/23 12:12:32;;;;;;;;;;;;;;;21.41;23.92;97660.88;4982937;28;1192;-76
2024/02/23 12:14:58;;;;;;;;;;;;;;;21.52;23.99;97664.97;4998891;28;774;-75
2024/02/23 12:17:26;;;;;;;;;;;;;;;21.66;23.88;97660.88;4999111;28;831;-75
2024/02/23 12:20:02;;;;;;;;;;;;;;;21.84;23.38;97663.91;5014870;28;798;-75
2024/02/23 12:22:27;;;;;;;;;;;;;;;21.63;23.89;97667.44;4998983;28;868;-75
2024/02/23 12:24:53;;;;;;;;;;;;;;;21.87;23.55;97659.41;4998323;28;794;-75
2024/02/23 12:27:18;;;;;;;;;;;;;;;21.88;23.54;97660.19;4998449;28;1973;-76
2024/02/23 12:29:54;;;;;;;;;;;;;;;21.75;23.70;97652.47;4956400;28;1216;-75
2024/02/23 12:32:19;;;;;;;;;;;;;;;21.55;24.02;97661.22;4956624;28;894;-75
2024/02/23 12:34:45;;;;;;;;;;;;;;;21.38;23.99;97658.94;4991396;28;869;-74
2024/02/23 12:37:10;;;;;;;;;;;;;;;21.56;24.07;97673.34;4979479;28;862;-74
2024/02/23 12:39:36;;;;;;;;;;;;;;;21.75;23.51;97674.34;4980000;28;1086;-75
2024/02/23 12:42:02;;;;;;;;;;;;;;;21.64;23.80;97669.03;4999392;28;712;-75
2024/02/23 12:44:27;;;;;;;;;;;;;;;21.59;23.72;97667.56;4982980;28;1233;-75
2024/02/23 12:46:53;;;;;;;;;;;;;;;21.74;23.72;97667.88;4983035;28;1959;-75
2024/02/23 12:49:18;;;;;;;;;;;;;;;21.71;23.90;97671.66;4998869;28;810;-75
2024/02/23 12:51:44;;;;;;;;;;;;;;;21.99;23.37;97666.28;4983169;28;779;-75
2024/02/23 12:54:09;;;;;;;;;;;;;;;21.64;23.88;97663.38;4998788;28;912;-75